Main page
METAR-TAF:

METAR-TAF

Airports :

RAF Woodvale

Woodvale, England

latitude: 53-34-54N, longitude: 003-03-20W, elevation: 11 m

Current weather observation

The report was made 8 hours and 46 minutes ago, at 15:50 UTC
Wind 7 kt from the East/Southeast
Temperature 22°C
Humidity 41%
Pressure 1024 hPa
Visibility 10 km or more
no clouds below 1500 m and no cumulonimbus

METAR: EGOW 231550Z 12007KT CAVOK 22/08 Q1024 BLU

Time: 01:36 (00:36 UTC)

Forecast

The report was made 11 hours and 11 minutes ago, at 13:25 UTC
Forecast valid from 23 at 15 UTC to 23 at 18 UTC
Wind 6 kt from the East
Visibility 10 km or more
no clouds below 1500 m and no cumulonimbus

TAF: EGOW 231325Z 2315/2318 10006KT CAVOK

Weather observations and forecasts of more than 4000 airports (METAR and TAF reports).

The available stations are represented by yellow and red dots on the map.

Hover mouse over dot to see the name of the station.

Then click to see weather observations and forecasts.

To change the map : click on the green buttons with a black cross to zoom in, on the green button with a dash to zoom out, or on the green arrows for adjacent maps.


METAR-TAF: